createdAt,value
2019-04-11T00:01:34.236Z,31.30
2019-04-11T00:04:15.949Z,31.30
2019-04-11T00:07:09.082Z,31.30
2019-04-11T00:10:01.561Z,31.20
2019-04-11T00:12:54.830Z,31.20
2019-04-11T00:15:48.762Z,31.30
2019-04-11T00:18:42.898Z,31.30
2019-04-11T00:21:37.796Z,31.20
2019-04-11T00:24:31.258Z,31.20
2019-04-11T00:27:24.611Z,31.20
2019-04-11T00:30:17.808Z,31.30
2019-04-11T00:33:10.762Z,31.20
2019-04-11T00:36:04.219Z,31.20
2019-04-11T00:38:57.321Z,31.20
2019-04-11T00:41:50.265Z,31.20
2019-04-11T00:44:43.405Z,31.30
2019-04-11T00:47:38.148Z,31.20
2019-04-11T00:50:31.523Z,31.20
2019-04-11T00:53:25.612Z,31.30
2019-04-11T00:56:18.308Z,31.20
2019-04-11T00:59:10.684Z,31.20
2019-04-11T01:02:03.608Z,31.20
2019-04-11T01:04:57.087Z,31.30
2019-04-11T01:07:51.373Z,31.30
2019-04-11T01:10:45.521Z,31.20
2019-04-11T01:13:44.372Z,31.30
2019-04-11T01:16:56.937Z,31.30
2019-04-11T01:19:51.065Z,31.20
2019-04-11T01:22:44.523Z,31.30
2019-04-11T01:25:37.580Z,31.30
2019-04-11T01:28:30.983Z,31.30
2019-04-11T01:31:25.261Z,31.20
2019-04-11T01:34:18.235Z,31.20
2019-04-11T01:37:11.391Z,31.30
2019-04-11T01:40:05.542Z,31.30
2019-04-11T01:42:59.620Z,31.30
2019-04-11T01:45:53.781Z,31.30
2019-04-11T01:48:55.514Z,31.30
2019-04-11T01:51:49.772Z,31.20
2019-04-11T01:54:42.449Z,31.30
2019-04-11T01:57:36.195Z,31.30
2019-04-11T02:01:00.716Z,31.30
2019-04-11T02:04:16.040Z,31.30
2019-04-11T02:07:10.327Z,31.30
2019-04-11T02:10:04.297Z,31.20
2019-04-11T02:12:58.230Z,31.30
2019-04-11T02:15:50.993Z,31.30
2019-04-11T02:18:43.728Z,31.30
2019-04-11T02:21:36.512Z,31.30
2019-04-11T02:24:57.908Z,31.30
2019-04-11T02:27:52.484Z,31.30
2019-04-11T02:30:48.537Z,31.30
2019-04-11T02:33:43.354Z,31.30
2019-04-11T02:36:38.192Z,31.30
2019-04-11T02:39:32.890Z,31.30
2019-04-11T02:42:25.402Z,31.30
2019-04-11T02:45:35.506Z,31.30
2019-04-11T02:48:13.711Z,31.30
2019-04-11T02:51:07.570Z,31.30
2019-04-11T02:54:02.082Z,31.30
2019-04-11T02:56:55.054Z,31.30
2019-04-11T02:59:49.043Z,31.30
2019-04-11T03:02:42.471Z,31.30
2019-04-11T03:05:37.622Z,31.30
2019-04-11T03:08:35.915Z,31.30
2019-04-11T03:11:27.827Z,31.30
2019-04-11T03:14:20.873Z,31.30
2019-04-11T03:17:20.426Z,31.30
2019-04-11T03:20:19.729Z,31.30
2019-04-11T03:23:07.455Z,31.30
2019-04-11T03:26:00.633Z,31.30
2019-04-11T03:28:56.265Z,31.30
2019-04-11T03:32:33.435Z,31.30
2019-04-11T03:35:51.699Z,31.30
2019-04-11T03:37:59.020Z,31.30
2019-04-11T03:40:50.145Z,31.30
2019-04-11T03:43:38.707Z,31.30
2019-04-11T03:46:40.175Z,31.30
2019-04-11T03:49:29.239Z,31.30
2019-04-11T03:52:14.998Z,31.30
2019-04-11T03:55:08.642Z,31.30
2019-04-11T03:58:01.601Z,31.30
2019-04-11T04:00:57.451Z,31.30
2019-04-11T04:03:49.778Z,31.30
2019-04-11T04:06:43.370Z,31.30
2019-04-11T04:09:37.381Z,31.20
2019-04-11T04:12:31.420Z,31.00
2019-04-11T04:16:04.983Z,30.90
2019-04-11T04:19:20.502Z,30.80
2019-04-11T04:22:20.735Z,30.70
2019-04-11T04:25:14.313Z,30.70
2019-04-11T04:28:07.489Z,30.60
2019-04-11T04:31:02.108Z,30.60
2019-04-11T04:33:55.515Z,30.80
2019-04-11T04:36:49.672Z,31.00
2019-04-11T04:39:43.623Z,31.00
2019-04-11T04:42:44.506Z,31.10
2019-04-11T04:45:49.543Z,31.10
2019-04-11T04:48:27.205Z,31.20
2019-04-11T04:51:20.683Z,31.20
2019-04-11T04:54:14.216Z,31.20
2019-04-11T04:57:08.832Z,31.10
2019-04-11T05:00:03.242Z,31.20
2019-04-11T05:02:57.033Z,31.20
2019-04-11T05:05:50.832Z,31.20
2019-04-11T05:08:45.115Z,31.20
2019-04-11T05:11:38.314Z,31.20
2019-04-11T05:14:31.680Z,31.20
2019-04-11T05:17:29.061Z,31.20
2019-04-11T05:20:23.953Z,31.20
2019-04-11T05:23:19.199Z,31.20
2019-04-11T05:26:15.264Z,31.20
2019-04-11T05:29:11.166Z,31.10
2019-04-11T05:32:07.266Z,31.00
2019-04-11T05:35:01.133Z,30.50
2019-04-11T05:37:55.665Z,30.30
2019-04-11T05:40:50.242Z,30.10
2019-04-11T05:43:43.488Z,30.10
2019-04-11T05:47:00.683Z,30.00
2019-04-11T05:50:10.091Z,30.00
2019-04-11T05:53:09.756Z,30.10
2019-04-11T05:56:11.241Z,30.10
2019-04-11T05:59:25.519Z,30.00
2019-04-11T06:02:37.433Z,29.90
2019-04-11T06:05:59.916Z,29.90
2019-04-11T06:09:02.222Z,30.00
2019-04-11T06:12:21.289Z,30.10
2019-04-11T06:15:29.110Z,30.00
2019-04-11T06:18:54.298Z,29.10
2019-04-11T06:22:00.270Z,29.80
2019-04-11T06:25:30.910Z,30.00
2019-04-11T06:28:30.615Z,30.00
2019-04-11T06:31:47.494Z,29.90
2019-04-11T06:34:51.230Z,29.80
2019-04-11T06:38:02.820Z,29.80
2019-04-11T06:41:18.746Z,30.00
2019-04-11T06:44:29.965Z,29.90
2019-04-11T06:47:41.364Z,29.80
2019-04-11T06:50:43.776Z,29.80
2019-04-11T06:53:42.240Z,29.90
2019-04-11T06:56:47.852Z,30.00
2019-04-11T06:59:44.918Z,30.00
2019-04-11T07:02:46.753Z,29.90
2019-04-11T07:05:40.619Z,30.00
2019-04-11T07:08:51.150Z,30.00
2019-04-11T07:11:54.170Z,30.00
2019-04-11T07:15:04.493Z,29.90
2019-04-11T07:18:14.126Z,29.90
2019-04-11T07:21:13.175Z,29.80
2019-04-11T07:24:24.565Z,29.80
2019-04-11T07:27:20.111Z,29.90
2019-04-11T07:30:33.183Z,29.80
2019-04-11T07:33:52.023Z,29.70
2019-04-11T07:37:02.889Z,29.70
2019-04-11T07:40:26.886Z,29.80
2019-04-11T07:43:22.799Z,29.60
2019-04-11T07:46:24.987Z,29.70
2019-04-11T07:49:26.514Z,29.70
2019-04-11T07:52:20.883Z,29.70
2019-04-11T07:55:14.794Z,29.60
2019-04-11T07:58:23.653Z,29.80
2019-04-11T08:01:40.378Z,29.70
2019-04-11T08:04:57.667Z,29.60
2019-04-11T08:08:11.025Z,29.50
2019-04-11T08:11:25.546Z,29.60
2019-04-11T08:17:42.015Z,29.60
2019-04-11T08:20:51.741Z,29.40
2019-04-11T08:23:54.099Z,29.60
2019-04-11T08:27:05.685Z,29.60
2019-04-11T08:30:00.656Z,29.60
2019-04-11T08:33:02.799Z,29.50
2019-04-11T08:36:12.259Z,29.60
2019-04-11T08:39:14.291Z,29.60
2019-04-11T08:42:43.731Z,29.50
2019-04-11T08:45:40.356Z,29.40
2019-04-11T08:48:37.190Z,29.60
2019-04-11T08:51:32.009Z,29.60
2019-04-11T08:54:43.878Z,29.60
2019-04-11T08:57:44.379Z,29.70
2019-04-11T09:01:00.222Z,29.70
2019-04-11T09:04:13.623Z,29.60
2019-04-11T09:07:05.658Z,29.50
2019-04-11T09:10:22.609Z,29.50
2019-04-11T09:13:31.394Z,29.60
2019-04-11T09:17:03.769Z,29.60
2019-04-11T09:20:17.238Z,29.60
2019-04-11T09:23:16.280Z,29.60
2019-04-11T09:26:27.687Z,29.70
2019-04-11T09:29:21.997Z,29.60
2019-04-11T09:32:31.915Z,29.50
2019-04-11T09:35:31.199Z,29.60
2019-04-11T09:38:31.131Z,29.70
2019-04-11T09:41:54.610Z,29.60
2019-04-11T09:44:57.126Z,29.50
2019-04-11T09:48:14.803Z,29.60
2019-04-11T09:51:13.625Z,29.60
2019-04-11T09:54:32.436Z,29.40
2019-04-11T09:57:34.638Z,29.60
2019-04-11T10:01:06.275Z,29.60
2019-04-11T10:04:08.841Z,29.50
2019-04-11T10:07:25.784Z,29.60
2019-04-11T10:10:49.681Z,29.60
2019-04-11T10:14:07.252Z,29.40
2019-04-11T10:17:43.121Z,29.50
2019-04-11T10:20:40.477Z,29.50
2019-04-11T10:23:53.331Z,29.40
2019-04-11T10:26:58.370Z,29.60
2019-04-11T10:30:10.365Z,29.60
2019-04-11T10:33:13.004Z,29.60
2019-04-11T10:36:32.681Z,29.70
2019-04-11T10:40:02.175Z,29.60
2019-04-11T10:43:04.309Z,29.60
2019-04-11T10:46:13.297Z,29.60
2019-04-11T10:49:26.190Z,29.60
2019-04-11T10:52:38.293Z,29.60
2019-04-11T10:56:11.968Z,29.70
2019-04-11T10:59:09.163Z,29.60
2019-04-11T11:02:25.143Z,29.60
2019-04-11T11:05:29.062Z,29.70
2019-04-11T11:08:43.673Z,29.70
2019-04-11T11:11:46.891Z,29.60
2019-04-11T11:15:17.588Z,29.60
2019-04-11T11:19:15.568Z,29.60
2019-04-11T11:21:41.475Z,29.60
2019-04-11T11:24:54.505Z,29.40
2019-04-11T11:27:48.016Z,29.60
2019-04-11T11:31:09.859Z,29.60
2019-04-11T11:33:59.640Z,29.60
2019-04-11T11:37:22.839Z,29.60
2019-04-11T11:43:32.861Z,29.60
2019-04-11T11:46:42.612Z,29.50
2019-04-11T11:49:48.739Z,29.60
2019-04-11T11:53:12.925Z,29.70
2019-04-11T11:56:05.389Z,29.60
2019-04-11T11:59:30.163Z,29.50
2019-04-11T12:02:30.584Z,29.60
2019-04-11T12:05:32.798Z,29.70
2019-04-11T12:08:47.468Z,29.60
2019-04-11T12:11:39.942Z,29.50
2019-04-11T12:14:43.400Z,29.60
2019-04-11T12:17:54.028Z,29.60
2019-04-11T12:20:54.274Z,29.60
2019-04-11T13:05:39.844Z,30.50
2019-04-11T13:08:49.471Z,30.60
2019-04-11T13:11:44.109Z,30.50
2019-04-11T13:15:04.485Z,30.20
2019-04-11T13:18:18.203Z,29.90
2019-04-11T13:21:14.084Z,29.70
2019-04-11T13:24:26.717Z,29.60
2019-04-11T13:27:23.366Z,29.70
2019-04-11T13:30:46.298Z,29.80
2019-04-11T13:33:39.194Z,29.80
2019-04-11T13:36:56.123Z,29.80
2019-04-11T13:39:52.611Z,29.70
2019-04-11T13:43:01.935Z,29.70
2019-04-11T13:46:06.908Z,29.70
2019-04-11T13:49:21.295Z,29.60
2019-04-11T13:52:32.550Z,29.60
2019-04-11T13:55:37.245Z,29.60
2019-04-11T13:58:46.877Z,29.50
2019-04-11T14:01:40.538Z,29.40
2019-04-11T14:04:38.504Z,29.60
2019-04-11T14:07:31.725Z,29.70
2019-04-11T14:10:25.705Z,29.90
2019-04-11T14:13:18.776Z,30.00
2019-04-11T14:16:20.644Z,30.00
2019-04-11T14:19:25.313Z,30.00
2019-04-11T14:22:18.421Z,30.00
2019-04-11T14:25:28.524Z,30.10
2019-04-11T14:28:21.062Z,30.20
2019-04-11T14:31:32.629Z,30.20
2019-04-11T14:34:59.048Z,30.10
2019-04-11T14:38:12.889Z,30.20
2019-04-11T14:41:32.842Z,30.30
2019-04-11T14:44:27.172Z,30.40
2019-04-11T14:47:41.821Z,30.50
2019-04-11T14:50:47.744Z,30.50
2019-04-11T14:53:52.045Z,30.50
2019-04-11T14:57:03.338Z,30.50
2019-04-11T15:00:09.145Z,30.60
2019-04-11T15:03:19.395Z,30.60
2019-04-11T15:06:22.636Z,30.60
2019-04-11T15:09:37.850Z,30.60
2019-04-11T15:12:32.741Z,30.60
2019-04-11T15:15:50.495Z,30.60
2019-04-11T15:18:50.629Z,30.70
2019-04-11T15:22:16.641Z,30.70
2019-04-11T15:25:17.021Z,30.70
2019-04-11T15:28:30.816Z,30.70
2019-04-11T15:31:41.582Z,30.70
2019-04-11T15:34:41.862Z,30.70
2019-04-11T15:37:52.691Z,30.70
2019-04-11T15:40:52.256Z,30.70
2019-04-11T15:44:01.655Z,30.80
2019-04-11T15:46:54.112Z,30.70
2019-04-11T15:50:09.955Z,30.80
2019-04-11T15:53:06.604Z,30.80
2019-04-11T15:56:16.678Z,30.80
2019-04-11T15:59:21.521Z,30.80
2019-04-11T16:02:21.332Z,30.80
2019-04-11T16:05:50.609Z,30.80
2019-04-11T16:08:45.483Z,30.80
2019-04-11T16:11:56.178Z,30.80
2019-04-11T16:14:48.842Z,30.80
2019-04-11T16:18:01.540Z,30.90
2019-04-11T16:20:56.265Z,30.90
2019-04-11T16:24:10.795Z,30.90
2019-04-11T16:27:27.304Z,30.90
2019-04-11T16:30:20.507Z,30.90
2019-04-11T16:33:35.325Z,30.90
2019-04-11T16:36:40.426Z,30.90
2019-04-11T16:39:53.493Z,30.90
2019-04-11T16:42:47.487Z,30.90
2019-04-11T16:46:06.332Z,30.90
2019-04-11T16:48:58.391Z,31.00
2019-04-11T16:51:50.827Z,30.90
2019-04-11T16:54:43.576Z,31.00
2019-04-11T16:57:36.249Z,31.00
2019-04-11T17:00:29.794Z,31.00
2019-04-11T17:03:24.731Z,31.00
2019-04-11T17:06:33.391Z,31.00
2019-04-11T17:09:40.056Z,31.00
2019-04-11T17:12:32.423Z,31.00
2019-04-11T17:15:25.043Z,31.00
2019-04-11T17:18:18.933Z,31.00
2019-04-11T17:21:12.139Z,31.00
2019-04-11T17:24:05.364Z,31.00
2019-04-11T17:26:58.275Z,31.00
2019-04-11T17:29:54.762Z,31.00
2019-04-11T17:32:46.937Z,31.00
2019-04-11T17:35:39.518Z,31.00
2019-04-11T17:38:32.302Z,31.00
2019-04-11T17:41:25.061Z,31.00
2019-04-11T17:44:18.857Z,31.00
2019-04-11T17:47:11.479Z,31.10
2019-04-11T17:50:04.477Z,31.00
2019-04-11T17:52:57.512Z,31.00
2019-04-11T17:55:51.977Z,31.00
2019-04-11T17:58:43.296Z,31.00
2019-04-11T18:01:37.898Z,31.00
2019-04-11T18:04:30.217Z,31.00
2019-04-11T18:07:22.651Z,31.10
2019-04-11T18:10:15.881Z,31.10
2019-04-11T18:13:08.500Z,31.10
2019-04-11T18:16:01.766Z,31.10
2019-04-11T18:18:55.123Z,31.10
2019-04-11T18:21:47.610Z,31.10
2019-04-11T18:24:39.979Z,31.10
2019-04-11T18:27:32.280Z,31.10
2019-04-11T18:30:24.331Z,31.10
2019-04-11T18:33:16.952Z,31.10
2019-04-11T18:36:09.575Z,31.10
2019-04-11T18:39:05.626Z,31.10
2019-04-11T18:41:57.649Z,31.20
2019-04-11T18:44:50.362Z,31.10
2019-04-11T18:47:43.062Z,31.20
2019-04-11T18:50:36.071Z,31.20
2019-04-11T18:53:28.691Z,31.10
2019-04-11T18:56:21.046Z,31.10
2019-04-11T18:59:14.846Z,31.20
2019-04-11T19:02:09.647Z,31.20
2019-04-11T19:05:02.242Z,31.20
2019-04-11T19:07:56.668Z,31.10
2019-04-11T19:10:49.269Z,31.20
2019-04-11T19:13:42.061Z,31.20
2019-04-11T19:16:34.810Z,31.20
2019-04-11T19:19:28.167Z,31.20
2019-04-11T19:22:36.338Z,31.20
2019-04-11T19:25:14.128Z,31.20
2019-04-11T19:28:06.622Z,31.20
2019-04-11T19:30:58.988Z,31.20
2019-04-11T19:33:51.518Z,31.20
2019-04-11T19:36:43.992Z,31.20
2019-04-11T19:39:36.258Z,31.20
2019-04-11T19:42:28.778Z,31.20
2019-04-11T19:45:21.212Z,31.20
2019-04-11T19:48:13.481Z,31.20
2019-04-11T19:51:06.112Z,31.20
2019-04-11T19:54:02.847Z,31.20
2019-04-11T19:57:10.566Z,31.20
2019-04-11T20:00:05.892Z,31.20
2019-04-11T20:02:58.592Z,31.20
2019-04-11T20:05:50.999Z,31.20
2019-04-11T20:08:43.312Z,31.20
2019-04-11T20:11:35.927Z,31.20
2019-04-11T20:14:28.404Z,31.20
2019-04-11T20:17:20.625Z,31.20
2019-04-11T20:20:13.082Z,31.20
2019-04-11T20:23:10.371Z,31.30
2019-04-11T20:25:59.514Z,31.20
2019-04-11T20:28:52.126Z,31.20
2019-04-11T20:31:45.769Z,31.20
2019-04-11T20:34:38.526Z,31.20
2019-04-11T20:37:39.126Z,31.20
2019-04-11T20:40:25.486Z,31.20
2019-04-11T20:43:17.701Z,31.20
2019-04-11T20:46:10.185Z,31.20
2019-04-11T20:49:02.860Z,31.30
2019-04-11T20:51:55.121Z,31.20
2019-04-11T20:54:47.815Z,31.30
2019-04-11T20:57:41.026Z,31.20
2019-04-11T21:00:33.311Z,31.30
2019-04-11T21:03:29.888Z,31.20
2019-04-11T21:06:19.945Z,31.30
2019-04-11T21:09:13.560Z,31.30
2019-04-11T21:12:07.455Z,31.30
2019-04-11T21:15:00.333Z,31.30
2019-04-11T21:17:53.612Z,31.30
2019-04-11T21:20:46.199Z,31.30
2019-04-11T21:23:38.543Z,31.30
2019-04-11T21:26:31.180Z,31.30
2019-04-11T21:29:25.635Z,31.30
2019-04-11T21:32:17.405Z,31.30
2019-04-11T21:35:09.749Z,31.30
2019-04-11T21:38:02.132Z,31.30
2019-04-11T21:40:54.158Z,31.30
2019-04-11T21:43:46.595Z,31.30
2019-04-11T21:46:41.774Z,31.30
2019-04-11T21:49:36.661Z,31.30
2019-04-11T21:52:26.924Z,31.30
2019-04-11T21:55:19.248Z,31.30
2019-04-11T21:58:11.836Z,31.30
2019-04-11T22:01:09.280Z,31.30
2019-04-11T22:04:02.043Z,31.30
2019-04-11T22:06:54.393Z,31.30
2019-04-11T22:09:46.639Z,31.30
2019-04-11T22:12:40.076Z,31.30
2019-04-11T22:15:32.991Z,31.30
2019-04-11T22:18:26.556Z,31.30
2019-04-11T22:21:19.203Z,31.30
2019-04-11T22:24:11.565Z,31.30
2019-04-11T22:27:03.888Z,31.30
2019-04-11T22:29:56.529Z,31.30
2019-04-11T22:32:57.431Z,31.30
2019-04-11T22:35:49.162Z,31.30
2019-04-11T22:38:41.297Z,31.30
2019-04-11T22:41:33.888Z,31.30
2019-04-11T22:44:26.171Z,31.30
2019-04-11T22:47:18.500Z,31.30
2019-04-11T22:50:10.774Z,31.30
2019-04-11T22:53:04.137Z,31.30
2019-04-11T22:55:57.394Z,31.30
2019-04-11T22:58:52.129Z,31.30
2019-04-11T23:01:46.996Z,31.30
2019-04-11T23:04:40.351Z,31.40
2019-04-11T23:07:33.518Z,31.30
2019-04-11T23:10:26.765Z,31.40
2019-04-11T23:13:19.519Z,31.40
2019-04-11T23:16:14.418Z,31.40
2019-04-11T23:19:06.967Z,31.40
2019-04-11T23:22:01.082Z,31.40
2019-04-11T23:24:54.307Z,31.40
2019-04-11T23:27:47.147Z,31.40
2019-04-11T23:30:40.206Z,31.40
2019-04-11T23:33:33.206Z,31.40
2019-04-11T23:36:26.121Z,31.40
2019-04-11T23:39:22.725Z,31.40
2019-04-11T23:42:14.185Z,31.40
2019-04-11T23:45:07.182Z,31.40
2019-04-11T23:48:00.414Z,31.40
2019-04-11T23:50:55.207Z,31.40
2019-04-11T23:53:48.154Z,31.40
2019-04-11T23:56:41.812Z,31.40
2019-04-11T23:59:34.794Z,31.40
